sensor_id;sensor_type;location;lat;lon;timestamp;pressure;altitude;pressure_sealevel;temperature;humidity
10539;BME280;5317;49.048;8.468;2022-07-10T00:01:37;112049.66;;;-142.21;89.24
10539;BME280;5317;49.048;8.468;2022-07-10T00:04:04;112049.66;;;-142.21;88.81
10539;BME280;5317;49.048;8.468;2022-07-10T00:06:32;112049.66;;;-142.21;88.89
10539;BME280;5317;49.048;8.468;2022-07-10T00:08:59;112049.66;;;-142.21;88.89
10539;BME280;5317;49.048;8.468;2022-07-10T00:11:26;112049.66;;;-142.21;88.56
10539;BME280;5317;49.048;8.468;2022-07-10T00:13:54;112049.66;;;-142.21;88.55
10539;BME280;5317;49.048;8.468;2022-07-10T00:16:23;112049.66;;;-142.21;88.60
10539;BME280;5317;49.048;8.468;2022-07-10T00:18:50;112049.66;;;-142.21;88.52
10539;BME280;5317;49.048;8.468;2022-07-10T00:21:18;112049.66;;;-142.21;88.43
10539;BME280;5317;49.048;8.468;2022-07-10T00:23:46;112049.66;;;-142.21;88.36
10539;BME280;5317;49.048;8.468;2022-07-10T00:26:13;112049.66;;;-142.21;88.48
10539;BME280;5317;49.048;8.468;2022-07-10T00:28:40;112049.66;;;-142.21;89.57
10539;BME280;5317;49.048;8.468;2022-07-10T00:31:09;112049.66;;;-142.21;89.70
10539;BME280;5317;49.048;8.468;2022-07-10T00:33:37;112049.66;;;-142.21;90.23
10539;BME280;5317;49.048;8.468;2022-07-10T00:36:05;112049.66;;;-142.21;90.48
10539;BME280;5317;49.048;8.468;2022-07-10T00:38:32;112049.66;;;-142.21;90.80
10539;BME280;5317;49.048;8.468;2022-07-10T00:41:00;112049.66;;;-142.21;90.79
10539;BME280;5317;49.048;8.468;2022-07-10T00:43:27;112049.66;;;-142.21;91.36
10539;BME280;5317;49.048;8.468;2022-07-10T00:45:54;112049.66;;;-142.21;91.53
10539;BME280;5317;49.048;8.468;2022-07-10T00:48:22;112049.66;;;-142.21;91.17
10539;BME280;5317;49.048;8.468;2022-07-10T00:50:50;112049.66;;;-142.21;90.80
10539;BME280;5317;49.048;8.468;2022-07-10T00:53:17;112049.66;;;-142.21;90.62
10539;BME280;5317;49.048;8.468;2022-07-10T00:55:45;112049.66;;;-142.21;89.89
10539;BME280;5317;49.048;8.468;2022-07-10T00:58:13;112049.66;;;-142.21;89.82
10539;BME280;5317;49.048;8.468;2022-07-10T01:00:41;112049.66;;;-142.21;89.28
10539;BME280;5317;49.048;8.468;2022-07-10T01:03:08;112049.66;;;-142.21;89.67
10539;BME280;5317;49.048;8.468;2022-07-10T01:05:37;112049.66;;;-142.21;89.53
10539;BME280;5317;49.048;8.468;2022-07-10T01:08:04;112049.66;;;-142.21;89.22
10539;BME280;5317;49.048;8.468;2022-07-10T01:10:32;112049.66;;;-142.21;89.04
10539;BME280;5317;49.048;8.468;2022-07-10T01:13:01;112049.66;;;-142.21;89.23
10539;BME280;5317;49.048;8.468;2022-07-10T01:15:29;112049.66;;;-142.21;89.00
10539;BME280;5317;49.048;8.468;2022-07-10T01:17:56;112049.66;;;-142.21;89.20
10539;BME280;5317;49.048;8.468;2022-07-10T01:20:31;112049.66;;;-142.21;88.81
10539;BME280;5317;49.048;8.468;2022-07-10T01:23:00;112049.66;;;-142.21;88.50
10539;BME280;5317;49.048;8.468;2022-07-10T01:25:27;112049.66;;;-142.21;87.43
10539;BME280;5317;49.048;8.468;2022-07-10T01:27:54;112049.66;;;-142.21;86.67
10539;BME280;5317;49.048;8.468;2022-07-10T01:30:22;112049.66;;;-142.21;85.88
10539;BME280;5317;49.048;8.468;2022-07-10T01:32:49;112049.66;;;-142.21;84.90
10539;BME280;5317;49.048;8.468;2022-07-10T01:35:16;112049.66;;;-142.21;84.30
10539;BME280;5317;49.048;8.468;2022-07-10T01:37:43;112049.66;;;-142.21;84.13
10539;BME280;5317;49.048;8.468;2022-07-10T01:40:13;112049.66;;;-142.21;84.15
10539;BME280;5317;49.048;8.468;2022-07-10T01:42:40;112049.66;;;-142.21;83.75
10539;BME280;5317;49.048;8.468;2022-07-10T01:45:08;112049.66;;;-142.21;83.83
10539;BME280;5317;49.048;8.468;2022-07-10T01:47:36;112049.66;;;-142.21;83.56
10539;BME280;5317;49.048;8.468;2022-07-10T01:50:05;112049.66;;;-142.21;83.66
10539;BME280;5317;49.048;8.468;2022-07-10T01:52:34;112049.66;;;-142.21;83.89
10539;BME280;5317;49.048;8.468;2022-07-10T01:55:02;112049.66;;;-142.21;83.82
10539;BME280;5317;49.048;8.468;2022-07-10T01:57:31;112049.66;;;-142.21;83.19
10539;BME280;5317;49.048;8.468;2022-07-10T01:59:58;112049.66;;;-142.21;83.20
10539;BME280;5317;49.048;8.468;2022-07-10T02:02:25;112049.66;;;-142.21;83.44
10539;BME280;5317;49.048;8.468;2022-07-10T02:04:52;112049.66;;;-142.21;83.27
10539;BME280;5317;49.048;8.468;2022-07-10T02:07:19;112049.66;;;-142.21;83.18
10539;BME280;5317;49.048;8.468;2022-07-10T02:09:48;112049.66;;;-142.21;83.25
10539;BME280;5317;49.048;8.468;2022-07-10T02:12:16;112049.66;;;-142.21;83.10
10539;BME280;5317;49.048;8.468;2022-07-10T02:14:44;112049.66;;;-142.21;82.76
10539;BME280;5317;49.048;8.468;2022-07-10T02:17:11;112049.66;;;-142.21;82.42
10539;BME280;5317;49.048;8.468;2022-07-10T02:19:39;112049.66;;;-142.21;82.39
10539;BME280;5317;49.048;8.468;2022-07-10T02:22:06;112049.66;;;-142.21;82.35
10539;BME280;5317;49.048;8.468;2022-07-10T02:24:33;112049.66;;;-142.21;82.38
10539;BME280;5317;49.048;8.468;2022-07-10T02:27:00;112049.66;;;-142.21;82.45
10539;BME280;5317;49.048;8.468;2022-07-10T02:29:27;112049.66;;;-142.21;82.31
10539;BME280;5317;49.048;8.468;2022-07-10T02:31:56;112049.66;;;-142.21;82.59
10539;BME280;5317;49.048;8.468;2022-07-10T02:34:23;112049.66;;;-142.21;82.78
10539;BME280;5317;49.048;8.468;2022-07-10T02:36:51;112049.66;;;-142.21;82.54
10539;BME280;5317;49.048;8.468;2022-07-10T02:39:18;112049.66;;;-142.21;82.54
10539;BME280;5317;49.048;8.468;2022-07-10T02:41:47;112049.66;;;-142.21;82.26
10539;BME280;5317;49.048;8.468;2022-07-10T02:44:14;112049.66;;;-142.21;82.59
10539;BME280;5317;49.048;8.468;2022-07-10T02:46:42;112049.66;;;-142.21;82.25
10539;BME280;5317;49.048;8.468;2022-07-10T02:49:10;112049.66;;;-142.21;82.38
10539;BME280;5317;49.048;8.468;2022-07-10T02:51:37;112049.66;;;-142.21;82.37
10539;BME280;5317;49.048;8.468;2022-07-10T02:54:05;112049.66;;;-142.21;82.73
10539;BME280;5317;49.048;8.468;2022-07-10T02:56:33;112049.66;;;-142.21;82.73
10539;BME280;5317;49.048;8.468;2022-07-10T02:59:02;112049.66;;;-142.21;82.68
10539;BME280;5317;49.048;8.468;2022-07-10T03:01:29;112049.66;;;-142.21;82.65
10539;BME280;5317;49.048;8.468;2022-07-10T03:03:56;112049.66;;;-142.21;82.83
10539;BME280;5317;49.048;8.468;2022-07-10T03:06:25;112049.66;;;-142.21;82.70
10539;BME280;5317;49.048;8.468;2022-07-10T03:08:52;112049.66;;;-142.21;82.44
10539;BME280;5317;49.048;8.468;2022-07-10T03:11:19;112049.66;;;-142.21;82.46
10539;BME280;5317;49.048;8.468;2022-07-10T03:13:46;112049.66;;;-142.21;82.35
10539;BME280;5317;49.048;8.468;2022-07-10T03:16:13;112049.66;;;-142.21;82.26
10539;BME280;5317;49.048;8.468;2022-07-10T03:18:40;112049.66;;;-142.21;82.16
10539;BME280;5317;49.048;8.468;2022-07-10T03:21:08;112049.66;;;-142.21;82.13
10539;BME280;5317;49.048;8.468;2022-07-10T03:23:36;112049.66;;;-142.21;81.99
10539;BME280;5317;49.048;8.468;2022-07-10T03:26:05;112049.66;;;-142.21;82.14
10539;BME280;5317;49.048;8.468;2022-07-10T03:28:33;112049.66;;;-142.21;82.02
10539;BME280;5317;49.048;8.468;2022-07-10T03:31:01;112049.66;;;-142.21;81.83
10539;BME280;5317;49.048;8.468;2022-07-10T03:33:28;112049.66;;;-142.21;82.34
10539;BME280;5317;49.048;8.468;2022-07-10T03:35:56;112049.66;;;-142.21;82.35
10539;BME280;5317;49.048;8.468;2022-07-10T03:38:23;112049.66;;;-142.21;82.42
10539;BME280;5317;49.048;8.468;2022-07-10T03:40:51;112049.66;;;-142.21;82.70
10539;BME280;5317;49.048;8.468;2022-07-10T03:43:19;112049.66;;;-142.21;82.59
10539;BME280;5317;49.048;8.468;2022-07-10T03:45:46;112049.66;;;-142.21;82.68
10539;BME280;5317;49.048;8.468;2022-07-10T03:48:13;112049.66;;;-142.21;82.94
10539;BME280;5317;49.048;8.468;2022-07-10T03:50:40;112049.66;;;-142.21;83.39
10539;BME280;5317;49.048;8.468;2022-07-10T03:53:07;112049.66;;;-142.21;83.62
10539;BME280;5317;49.048;8.468;2022-07-10T03:55:35;112049.66;;;-142.21;83.62
10539;BME280;5317;49.048;8.468;2022-07-10T03:58:03;112049.66;;;-142.21;83.88
10539;BME280;5317;49.048;8.468;2022-07-10T04:00:30;112049.66;;;-142.21;84.05
10539;BME280;5317;49.048;8.468;2022-07-10T04:03:00;112049.66;;;-142.21;84.02
10539;BME280;5317;49.048;8.468;2022-07-10T04:05:28;112049.66;;;-142.21;83.90
10539;BME280;5317;49.048;8.468;2022-07-10T04:07:58;112049.66;;;-142.21;84.60
10539;BME280;5317;49.048;8.468;2022-07-10T04:10:27;112049.66;;;-142.21;85.16
10539;BME280;5317;49.048;8.468;2022-07-10T04:12:56;112049.66;;;-142.21;85.84
10539;BME280;5317;49.048;8.468;2022-07-10T04:15:25;112049.66;;;-142.21;86.21
10539;BME280;5317;49.048;8.468;2022-07-10T04:17:52;112049.66;;;-142.21;86.30
10539;BME280;5317;49.048;8.468;2022-07-10T04:20:21;112049.66;;;-142.21;86.93
10539;BME280;5317;49.048;8.468;2022-07-10T04:22:48;112049.66;;;-142.21;86.43
10539;BME280;5317;49.048;8.468;2022-07-10T04:25:16;112049.66;;;-142.21;87.52
10539;BME280;5317;49.048;8.468;2022-07-10T04:27:43;112049.66;;;-142.21;87.25
10539;BME280;5317;49.048;8.468;2022-07-10T04:30:14;112049.66;;;-142.21;88.05
10539;BME280;5317;49.048;8.468;2022-07-10T04:32:42;112049.66;;;-142.21;88.80
10539;BME280;5317;49.048;8.468;2022-07-10T04:35:09;112049.66;;;-142.21;87.81
10539;BME280;5317;49.048;8.468;2022-07-10T04:37:37;112049.66;;;-142.21;88.65
10539;BME280;5317;49.048;8.468;2022-07-10T04:40:07;112049.66;;;-142.21;87.58
10539;BME280;5317;49.048;8.468;2022-07-10T04:42:36;112049.66;;;-142.21;87.65
10539;BME280;5317;49.048;8.468;2022-07-10T04:45:05;112049.66;;;-142.21;88.37
10539;BME280;5317;49.048;8.468;2022-07-10T04:47:32;112049.66;;;-142.21;88.14
10539;BME280;5317;49.048;8.468;2022-07-10T04:50:00;112049.66;;;-142.21;88.01
10539;BME280;5317;49.048;8.468;2022-07-10T04:52:28;112049.66;;;-142.21;88.24
10539;BME280;5317;49.048;8.468;2022-07-10T04:54:55;112049.66;;;-142.21;87.45
10539;BME280;5317;49.048;8.468;2022-07-10T04:57:22;112049.66;;;-142.21;87.04
10539;BME280;5317;49.048;8.468;2022-07-10T04:59:49;112049.66;;;-142.21;88.04
10539;BME280;5317;49.048;8.468;2022-07-10T05:02:17;112049.66;;;-142.21;87.14
10539;BME280;5317;49.048;8.468;2022-07-10T05:04:44;112049.66;;;-142.21;86.64
10539;BME280;5317;49.048;8.468;2022-07-10T05:07:12;112049.66;;;-142.21;86.13
10539;BME280;5317;49.048;8.468;2022-07-10T05:09:40;112049.66;;;-142.21;85.61
10539;BME280;5317;49.048;8.468;2022-07-10T05:12:07;112049.66;;;-142.21;85.71
10539;BME280;5317;49.048;8.468;2022-07-10T05:14:35;112049.66;;;-142.21;85.30
10539;BME280;5317;49.048;8.468;2022-07-10T05:17:02;112049.66;;;-142.21;84.25
10539;BME280;5317;49.048;8.468;2022-07-10T05:19:29;112049.66;;;-142.21;84.78
10539;BME280;5317;49.048;8.468;2022-07-10T05:21:57;112049.66;;;-142.21;84.69
10539;BME280;5317;49.048;8.468;2022-07-10T05:24:25;112049.66;;;-142.21;83.87
10539;BME280;5317;49.048;8.468;2022-07-10T05:26:52;112049.66;;;-142.21;83.59
10539;BME280;5317;49.048;8.468;2022-07-10T05:29:20;112049.66;;;-142.21;84.21
10539;BME280;5317;49.048;8.468;2022-07-10T05:31:47;112049.66;;;-142.21;84.28
10539;BME280;5317;49.048;8.468;2022-07-10T05:34:14;112049.66;;;-142.21;84.13
10539;BME280;5317;49.048;8.468;2022-07-10T05:36:41;112049.66;;;-142.21;82.78
10539;BME280;5317;49.048;8.468;2022-07-10T05:39:08;112049.66;;;-142.21;81.83
10539;BME280;5317;49.048;8.468;2022-07-10T05:41:37;112049.66;;;-142.21;82.13
10539;BME280;5317;49.048;8.468;2022-07-10T05:44:04;112049.66;;;-142.21;81.58
10539;BME280;5317;49.048;8.468;2022-07-10T05:46:31;112049.66;;;-142.21;80.87
10539;BME280;5317;49.048;8.468;2022-07-10T05:48:58;112049.66;;;-142.21;80.47
10539;BME280;5317;49.048;8.468;2022-07-10T05:51:25;112049.66;;;-142.21;80.45
10539;BME280;5317;49.048;8.468;2022-07-10T05:53:52;112049.66;;;-142.21;80.12
10539;BME280;5317;49.048;8.468;2022-07-10T05:56:19;112049.66;;;-142.21;80.31
10539;BME280;5317;49.048;8.468;2022-07-10T05:58:48;112049.66;;;-142.21;79.21
10539;BME280;5317;49.048;8.468;2022-07-10T06:01:16;112049.66;;;-142.21;79.30
10539;BME280;5317;49.048;8.468;2022-07-10T06:03:43;112049.66;;;-142.21;78.86
10539;BME280;5317;49.048;8.468;2022-07-10T06:06:10;112049.66;;;-142.21;78.66
10539;BME280;5317;49.048;8.468;2022-07-10T06:08:41;112049.66;;;-142.21;78.24
10539;BME280;5317;49.048;8.468;2022-07-10T06:11:08;112049.66;;;-142.21;77.61
10539;BME280;5317;49.048;8.468;2022-07-10T06:13:36;112049.66;;;-142.21;77.17
10539;BME280;5317;49.048;8.468;2022-07-10T06:16:09;112049.66;;;-142.21;76.87
10539;BME280;5317;49.048;8.468;2022-07-10T06:18:42;112049.66;;;-142.21;76.22
10539;BME280;5317;49.048;8.468;2022-07-10T06:21:09;112049.66;;;-142.21;76.31
10539;BME280;5317;49.048;8.468;2022-07-10T06:23:36;112049.66;;;-142.21;75.56
10539;BME280;5317;49.048;8.468;2022-07-10T06:26:05;112049.66;;;-142.21;76.40
10539;BME280;5317;49.048;8.468;2022-07-10T06:28:34;112049.66;;;-142.21;75.79
10539;BME280;5317;49.048;8.468;2022-07-10T06:31:02;112049.66;;;-142.21;75.04
10539;BME280;5317;49.048;8.468;2022-07-10T06:33:30;112049.66;;;-142.21;74.46
10539;BME280;5317;49.048;8.468;2022-07-10T06:35:58;112049.66;;;-142.21;75.09
10539;BME280;5317;49.048;8.468;2022-07-10T06:38:25;112049.66;;;-142.21;73.96
10539;BME280;5317;49.048;8.468;2022-07-10T06:40:53;112049.66;;;-142.21;72.18
10539;BME280;5317;49.048;8.468;2022-07-10T06:43:20;112049.66;;;-142.21;72.37
10539;BME280;5317;49.048;8.468;2022-07-10T06:45:48;112049.66;;;-142.21;71.55
10539;BME280;5317;49.048;8.468;2022-07-10T06:48:16;112049.66;;;-142.21;71.69
10539;BME280;5317;49.048;8.468;2022-07-10T06:50:44;112049.66;;;-142.21;70.97
10539;BME280;5317;49.048;8.468;2022-07-10T06:53:11;112049.66;;;-142.21;70.13
10539;BME280;5317;49.048;8.468;2022-07-10T06:55:38;112049.66;;;-142.21;70.40
10539;BME280;5317;49.048;8.468;2022-07-10T06:58:06;112049.66;;;-142.21;70.04
10539;BME280;5317;49.048;8.468;2022-07-10T07:00:33;112049.66;;;-142.21;68.79
10539;BME280;5317;49.048;8.468;2022-07-10T07:03:00;112049.66;;;-142.21;70.22
10539;BME280;5317;49.048;8.468;2022-07-10T07:05:27;112049.66;;;-142.21;68.53
10539;BME280;5317;49.048;8.468;2022-07-10T07:07:56;112049.66;;;-142.21;67.44
10539;BME280;5317;49.048;8.468;2022-07-10T07:10:23;112049.66;;;-142.21;67.83
10539;BME280;5317;49.048;8.468;2022-07-10T07:12:51;112049.66;;;-142.21;65.99
10539;BME280;5317;49.048;8.468;2022-07-10T07:15:19;112049.66;;;-142.21;64.81
10539;BME280;5317;49.048;8.468;2022-07-10T07:17:49;112049.66;;;-142.21;63.78
10539;BME280;5317;49.048;8.468;2022-07-10T07:20:34;112049.66;;;-142.21;63.85
10539;BME280;5317;49.048;8.468;2022-07-10T07:23:21;112049.66;;;-142.21;64.44
10539;BME280;5317;49.048;8.468;2022-07-10T07:25:48;112049.66;;;-142.21;65.39
10539;BME280;5317;49.048;8.468;2022-07-10T07:28:16;112049.66;;;-142.21;63.23
10539;BME280;5317;49.048;8.468;2022-07-10T07:30:45;112049.66;;;-142.21;63.46
10539;BME280;5317;49.048;8.468;2022-07-10T07:33:12;112049.66;;;-142.21;62.76
10539;BME280;5317;49.048;8.468;2022-07-10T07:35:39;112049.66;;;-142.21;64.30
10539;BME280;5317;49.048;8.468;2022-07-10T07:38:07;112049.66;;;-142.21;64.56
10539;BME280;5317;49.048;8.468;2022-07-10T07:40:36;112049.66;;;-142.21;62.19
10539;BME280;5317;49.048;8.468;2022-07-10T07:43:04;112049.66;;;-142.21;62.35
10539;BME280;5317;49.048;8.468;2022-07-10T07:45:31;112049.66;;;-142.21;61.42
10539;BME280;5317;49.048;8.468;2022-07-10T07:47:59;112049.66;;;-142.21;59.36
10539;BME280;5317;49.048;8.468;2022-07-10T07:50:30;112049.66;;;-142.21;60.22
10539;BME280;5317;49.048;8.468;2022-07-10T07:52:59;112049.66;;;-142.21;59.87
10539;BME280;5317;49.048;8.468;2022-07-10T07:55:28;112049.66;;;-142.21;59.49
10539;BME280;5317;49.048;8.468;2022-07-10T07:57:57;112049.66;;;-142.21;59.63
10539;BME280;5317;49.048;8.468;2022-07-10T08:00:27;112049.66;;;-142.21;58.88
10539;BME280;5317;49.048;8.468;2022-07-10T08:02:56;112049.66;;;-142.21;58.46
10539;BME280;5317;49.048;8.468;2022-07-10T08:05:24;112049.66;;;-142.21;55.43
10539;BME280;5317;49.048;8.468;2022-07-10T08:07:54;112049.66;;;-142.21;54.10
10539;BME280;5317;49.048;8.468;2022-07-10T08:10:24;112049.66;;;-142.21;53.57
10539;BME280;5317;49.048;8.468;2022-07-10T08:12:52;112049.66;;;-142.21;53.37
10539;BME280;5317;49.048;8.468;2022-07-10T08:15:21;112049.66;;;-142.21;54.52
10539;BME280;5317;49.048;8.468;2022-07-10T08:17:50;112049.66;;;-142.21;54.32
10539;BME280;5317;49.048;8.468;2022-07-10T08:20:17;112049.66;;;-142.21;53.32
10539;BME280;5317;49.048;8.468;2022-07-10T08:22:46;112049.66;;;-142.21;52.01
10539;BME280;5317;49.048;8.468;2022-07-10T08:25:14;112049.66;;;-142.21;50.96
10539;BME280;5317;49.048;8.468;2022-07-10T08:27:42;112049.66;;;-142.21;52.30
10539;BME280;5317;49.048;8.468;2022-07-10T08:30:10;112049.66;;;-142.21;51.76
10539;BME280;5317;49.048;8.468;2022-07-10T08:32:39;112049.66;;;-142.21;51.44
10539;BME280;5317;49.048;8.468;2022-07-10T08:35:09;112049.66;;;-142.21;51.43
10539;BME280;5317;49.048;8.468;2022-07-10T08:37:38;112049.66;;;-142.21;51.90
10539;BME280;5317;49.048;8.468;2022-07-10T08:40:08;112049.66;;;-142.21;50.72
10539;BME280;5317;49.048;8.468;2022-07-10T08:42:36;112049.66;;;-142.21;50.63
10539;BME280;5317;49.048;8.468;2022-07-10T08:45:04;112049.66;;;-142.21;48.65
10539;BME280;5317;49.048;8.468;2022-07-10T08:47:34;112049.66;;;-142.21;47.41
10539;BME280;5317;49.048;8.468;2022-07-10T08:50:05;112049.66;;;-142.21;47.60
10539;BME280;5317;49.048;8.468;2022-07-10T08:52:44;112049.66;;;-142.21;47.60
10539;BME280;5317;49.048;8.468;2022-07-10T08:55:14;112049.66;;;-142.21;46.89
10539;BME280;5317;49.048;8.468;2022-07-10T08:57:43;112049.66;;;-142.21;47.51
10539;BME280;5317;49.048;8.468;2022-07-10T09:00:11;112049.66;;;-142.21;47.07
10539;BME280;5317;49.048;8.468;2022-07-10T09:02:38;112049.66;;;-142.21;46.68
10539;BME280;5317;49.048;8.468;2022-07-10T09:05:08;112049.66;;;-142.21;47.78
10539;BME280;5317;49.048;8.468;2022-07-10T09:07:36;112049.66;;;-142.21;46.42
10539;BME280;5317;49.048;8.468;2022-07-10T09:10:08;112049.66;;;-142.21;44.59
10539;BME280;5317;49.048;8.468;2022-07-10T09:12:51;112049.66;;;-142.21;43.42
10539;BME280;5317;49.048;8.468;2022-07-10T09:15:21;112049.66;;;-142.21;43.50
10539;BME280;5317;49.048;8.468;2022-07-10T09:17:54;112049.66;;;-142.21;44.91
10539;BME280;5317;49.048;8.468;2022-07-10T09:20:32;112049.66;;;-142.21;43.88
10539;BME280;5317;49.048;8.468;2022-07-10T09:23:15;112049.66;;;-142.21;43.88
10539;BME280;5317;49.048;8.468;2022-07-10T09:25:43;112049.66;;;-142.21;42.98
10539;BME280;5317;49.048;8.468;2022-07-10T09:28:12;112049.66;;;-142.21;43.17
10539;BME280;5317;49.048;8.468;2022-07-10T09:30:40;112049.66;;;-142.21;43.52
10539;BME280;5317;49.048;8.468;2022-07-10T09:33:19;112049.66;;;-142.21;42.88
10539;BME280;5317;49.048;8.468;2022-07-10T09:36:06;112049.66;;;-142.21;42.62
10539;BME280;5317;49.048;8.468;2022-07-10T09:38:54;112049.66;;;-142.21;42.14
10539;BME280;5317;49.048;8.468;2022-07-10T09:41:29;112049.66;;;-142.21;42.07
10539;BME280;5317;49.048;8.468;2022-07-10T09:43:58;112049.66;;;-142.21;42.36
10539;BME280;5317;49.048;8.468;2022-07-10T09:46:31;112049.66;;;-142.21;41.82
10539;BME280;5317;49.048;8.468;2022-07-10T09:49:05;112049.66;;;-142.21;41.28
10539;BME280;5317;49.048;8.468;2022-07-10T09:51:36;112049.66;;;-142.21;40.73
10539;BME280;5317;49.048;8.468;2022-07-10T09:54:05;112049.66;;;-142.21;41.08
10539;BME280;5317;49.048;8.468;2022-07-10T09:56:43;112049.66;;;-142.21;40.80
10539;BME280;5317;49.048;8.468;2022-07-10T09:59:12;112049.66;;;-142.21;40.82
10539;BME280;5317;49.048;8.468;2022-07-10T10:01:45;112049.66;;;-142.21;40.72
10539;BME280;5317;49.048;8.468;2022-07-10T10:04:14;112049.66;;;-142.21;40.88
10539;BME280;5317;49.048;8.468;2022-07-10T10:06:45;112049.66;;;-142.21;39.40
10539;BME280;5317;49.048;8.468;2022-07-10T10:09:23;112049.66;;;-142.21;39.85
10539;BME280;5317;49.048;8.468;2022-07-10T10:11:57;112049.66;;;-142.21;39.95
10539;BME280;5317;49.048;8.468;2022-07-10T10:14:28;112049.66;;;-142.21;39.61
10539;BME280;5317;49.048;8.468;2022-07-10T10:16:56;112049.66;;;-142.21;39.26
10539;BME280;5317;49.048;8.468;2022-07-10T10:19:26;112049.66;;;-142.21;39.55
10539;BME280;5317;49.048;8.468;2022-07-10T10:22:15;112049.66;;;-142.21;38.66
10539;BME280;5317;49.048;8.468;2022-07-10T10:24:45;112049.66;;;-142.21;37.47
10539;BME280;5317;49.048;8.468;2022-07-10T10:27:15;112049.66;;;-142.21;36.54
10539;BME280;5317;49.048;8.468;2022-07-10T10:29:45;112049.66;;;-142.21;37.63
10539;BME280;5317;49.048;8.468;2022-07-10T10:32:14;112049.66;;;-142.21;36.17
10539;BME280;5317;49.048;8.468;2022-07-10T10:34:44;112049.66;;;-142.21;37.74
10539;BME280;5317;49.048;8.468;2022-07-10T10:37:35;112049.66;;;-142.21;37.76
10539;BME280;5317;49.048;8.468;2022-07-10T10:40:05;112049.66;;;-142.21;37.44
10539;BME280;5317;49.048;8.468;2022-07-10T10:42:37;112049.66;;;-142.21;37.02
10539;BME280;5317;49.048;8.468;2022-07-10T10:45:31;112049.66;;;-142.21;36.40
10539;BME280;5317;49.048;8.468;2022-07-10T10:48:04;112049.66;;;-142.21;37.53
10539;BME280;5317;49.048;8.468;2022-07-10T10:50:39;112049.66;;;-142.21;36.98
10539;BME280;5317;49.048;8.468;2022-07-10T10:53:15;112049.66;;;-142.21;35.97
10539;BME280;5317;49.048;8.468;2022-07-10T10:56:22;112049.66;;;-142.21;36.53
10539;BME280;5317;49.048;8.468;2022-07-10T10:58:54;112049.66;;;-142.21;36.38
10539;BME280;5317;49.048;8.468;2022-07-10T11:01:26;112049.66;;;-142.21;37.03
10539;BME280;5317;49.048;8.468;2022-07-10T11:04:14;112049.66;;;-142.21;36.41
10539;BME280;5317;49.048;8.468;2022-07-10T11:06:44;112049.66;;;-142.21;35.99
10539;BME280;5317;49.048;8.468;2022-07-10T11:09:26;112049.66;;;-142.21;35.72
10539;BME280;5317;49.048;8.468;2022-07-10T11:12:04;112049.66;;;-142.21;36.51
10539;BME280;5317;49.048;8.468;2022-07-10T11:14:34;112049.66;;;-142.21;36.27
10539;BME280;5317;49.048;8.468;2022-07-10T11:17:03;112049.66;;;-142.21;36.86
10539;BME280;5317;49.048;8.468;2022-07-10T11:19:31;112049.66;;;-142.21;35.93
10539;BME280;5317;49.048;8.468;2022-07-10T11:22:21;112049.66;;;-142.21;35.51
10539;BME280;5317;49.048;8.468;2022-07-10T11:25:04;112049.66;;;-142.21;35.31
10539;BME280;5317;49.048;8.468;2022-07-10T11:27:59;112049.66;;;-142.21;35.87
10539;BME280;5317;49.048;8.468;2022-07-10T11:30:45;112049.66;;;-142.21;36.03
10539;BME280;5317;49.048;8.468;2022-07-10T11:33:16;112049.66;;;-142.21;35.50
10539;BME280;5317;49.048;8.468;2022-07-10T11:35:49;112049.66;;;-142.21;35.40
10539;BME280;5317;49.048;8.468;2022-07-10T11:38:21;112049.66;;;-142.21;35.12
10539;BME280;5317;49.048;8.468;2022-07-10T11:40:50;112049.66;;;-142.21;35.18
10539;BME280;5317;49.048;8.468;2022-07-10T11:43:18;112049.66;;;-142.21;35.30
10539;BME280;5317;49.048;8.468;2022-07-10T11:45:50;112049.66;;;-142.21;34.34
10539;BME280;5317;49.048;8.468;2022-07-10T11:48:19;112049.66;;;-142.21;35.38
10539;BME280;5317;49.048;8.468;2022-07-10T11:50:47;112049.66;;;-142.21;33.97
10539;BME280;5317;49.048;8.468;2022-07-10T11:53:22;112049.66;;;-142.21;35.38
10539;BME280;5317;49.048;8.468;2022-07-10T11:55:51;112049.66;;;-142.21;35.07
10539;BME280;5317;49.048;8.468;2022-07-10T11:58:20;112049.66;;;-142.21;34.53
10539;BME280;5317;49.048;8.468;2022-07-10T12:00:59;112049.66;;;-142.21;35.11
10539;BME280;5317;49.048;8.468;2022-07-10T12:03:28;112049.66;;;-142.21;35.11
10539;BME280;5317;49.048;8.468;2022-07-10T12:06:01;112049.66;;;-142.21;34.47
10539;BME280;5317;49.048;8.468;2022-07-10T12:08:29;112049.66;;;-142.21;34.01
10539;BME280;5317;49.048;8.468;2022-07-10T12:10:57;112049.66;;;-142.21;34.35
10539;BME280;5317;49.048;8.468;2022-07-10T12:13:25;112049.66;;;-142.21;35.11
10539;BME280;5317;49.048;8.468;2022-07-10T12:15:52;112049.66;;;-142.21;34.96
10539;BME280;5317;49.048;8.468;2022-07-10T12:18:21;112049.66;;;-142.21;34.86
10539;BME280;5317;49.048;8.468;2022-07-10T12:20:51;112049.66;;;-142.21;34.00
10539;BME280;5317;49.048;8.468;2022-07-10T12:23:19;112049.66;;;-142.21;33.43
10539;BME280;5317;49.048;8.468;2022-07-10T12:25:49;112049.66;;;-142.21;34.61
10539;BME280;5317;49.048;8.468;2022-07-10T12:28:18;112049.66;;;-142.21;32.83
10539;BME280;5317;49.048;8.468;2022-07-10T12:30:46;112049.66;;;-142.21;34.29
10539;BME280;5317;49.048;8.468;2022-07-10T12:33:19;112049.66;;;-142.21;34.15
10539;BME280;5317;49.048;8.468;2022-07-10T12:35:51;112049.66;;;-142.21;35.48
10539;BME280;5317;49.048;8.468;2022-07-10T12:38:23;112049.66;;;-142.21;34.71
10539;BME280;5317;49.048;8.468;2022-07-10T12:41:04;112049.66;;;-142.21;33.71
10539;BME280;5317;49.048;8.468;2022-07-10T12:43:34;112049.66;;;-142.21;34.14
10539;BME280;5317;49.048;8.468;2022-07-10T12:46:09;112049.66;;;-142.21;33.74
10539;BME280;5317;49.048;8.468;2022-07-10T12:48:38;112049.66;;;-142.21;33.61
10539;BME280;5317;49.048;8.468;2022-07-10T12:51:24;112049.66;;;-142.21;34.01
10539;BME280;5317;49.048;8.468;2022-07-10T12:53:52;112049.66;;;-142.21;33.58